createdAt,value
2023-03-17T00:02:11.294Z,99953.22
2023-03-17T00:04:40.781Z,99954.55
2023-03-17T00:07:15.110Z,99949.75
2023-03-17T00:09:43.643Z,99952.81
2023-03-17T00:12:12.984Z,99957.93
2023-03-17T00:14:42.469Z,99955.20
2023-03-17T00:17:12.872Z,99958.05
2023-03-17T00:19:42.782Z,99962.73
2023-03-17T00:22:15.567Z,99959.16
2023-03-17T00:24:44.743Z,99958.74
2023-03-17T00:27:13.964Z,99961.63
2023-03-17T00:29:43.957Z,99959.81
2023-03-17T00:32:17.128Z,99964.23
2023-03-17T00:34:47.487Z,99961.92
2023-03-17T00:37:17.612Z,99964.61
2023-03-17T00:39:45.885Z,99959.58
2023-03-17T00:42:16.250Z,99956.59
2023-03-17T00:44:44.721Z,99956.30
2023-03-17T00:47:16.502Z,99954.98
2023-03-17T00:49:45.500Z,99951.48
2023-03-17T00:52:16.232Z,99953.31
2023-03-17T00:54:45.526Z,99954.34
2023-03-17T00:57:13.858Z,99954.09
2023-03-17T00:59:42.907Z,99953.13
2023-03-17T01:02:13.328Z,99950.73
2023-03-17T01:04:49.890Z,99957.05
2023-03-17T01:07:22.815Z,99955.77
2023-03-17T01:09:51.325Z,99957.23
2023-03-17T01:12:20.505Z,99958.91
2023-03-17T01:14:50.659Z,99957.35
2023-03-17T01:17:19.530Z,99959.02
2023-03-17T01:19:51.886Z,99958.56
2023-03-17T01:22:20.523Z,99952.48
2023-03-17T01:24:48.711Z,99962.13
2023-03-17T01:27:18.960Z,99963.41
2023-03-17T01:29:47.629Z,99971.00
2023-03-17T01:32:20.272Z,99970.63
2023-03-17T01:34:51.180Z,99975.02
2023-03-17T01:37:21.435Z,99973.05
2023-03-17T01:39:54.234Z,99980.76
2023-03-17T01:42:40.205Z,99977.55
2023-03-17T01:45:49.254Z,99978.17
2023-03-17T01:48:18.248Z,99977.73
2023-03-17T01:50:46.718Z,99978.78
2023-03-17T01:53:15.585Z,99979.48
2023-03-17T01:55:45.156Z,99985.26
2023-03-17T01:58:15.223Z,99985.73
2023-03-17T02:00:48.255Z,99993.35
2023-03-17T02:03:18.836Z,99991.88
2023-03-17T02:05:48.669Z,99992.24
2023-03-17T02:08:17.824Z,99997.23
2023-03-17T02:10:46.375Z,99997.91
2023-03-17T02:13:14.659Z,100006.83
2023-03-17T02:15:46.681Z,100005.41
2023-03-17T02:18:15.520Z,100004.19
2023-03-17T02:20:46.777Z,100005.61
2023-03-17T02:23:23.063Z,100008.71
2023-03-17T02:25:52.889Z,100005.95
2023-03-17T02:28:23.977Z,100013.02
2023-03-17T02:30:54.129Z,100017.30
2023-03-17T02:33:22.354Z,100017.30
2023-03-17T02:35:57.279Z,100016.27
2023-03-17T02:38:26.142Z,100017.25
2023-03-17T02:40:54.326Z,100021.06
2023-03-17T02:43:22.963Z,100022.45
2023-03-17T02:45:51.180Z,100026.96
2023-03-17T02:48:19.998Z,100027.63
2023-03-17T02:50:48.200Z,100029.89
2023-03-17T02:53:18.098Z,100032.41
2023-03-17T02:55:46.654Z,100026.84
2023-03-17T02:58:14.981Z,100034.27
2023-03-17T03:00:43.400Z,100034.23
2023-03-17T03:03:12.101Z,100037.28
2023-03-17T03:05:40.356Z,100031.88
2023-03-17T03:08:09.634Z,100035.17
2023-03-17T03:10:38.162Z,100037.24
2023-03-17T03:13:09.236Z,100039.02
2023-03-17T03:15:43.320Z,100046.73
2023-03-17T03:18:12.540Z,100046.70
2023-03-17T03:20:44.546Z,100047.86
2023-03-17T03:23:13.860Z,100052.19
2023-03-17T03:25:44.430Z,100050.54
2023-03-17T03:28:13.857Z,100052.36
2023-03-17T03:30:42.667Z,100049.46
2023-03-17T03:33:15.611Z,100050.17
2023-03-17T03:35:45.084Z,100050.13
2023-03-17T03:38:13.998Z,100047.67
2023-03-17T03:40:42.762Z,100055.20
2023-03-17T03:43:22.408Z,100051.81
2023-03-17T03:45:53.043Z,100053.01
2023-03-17T03:48:21.807Z,100055.41
2023-03-17T03:50:50.948Z,100062.52
2023-03-17T03:53:20.340Z,100057.48
2023-03-17T03:55:48.540Z,100061.04
2023-03-17T03:58:16.684Z,100064.00
2023-03-17T04:00:44.953Z,100068.50
2023-03-17T04:03:16.213Z,100072.59
2023-03-17T04:05:44.793Z,100073.41
2023-03-17T04:08:18.535Z,100078.16
2023-03-17T04:10:48.408Z,100079.40
2023-03-17T04:13:16.690Z,100085.30
2023-03-17T04:15:46.137Z,100088.48
2023-03-17T04:18:15.113Z,100091.86
2023-03-17T04:20:43.664Z,100090.63
2023-03-17T04:23:13.891Z,100091.91
2023-03-17T04:25:42.788Z,100088.69
2023-03-17T04:28:12.713Z,100100.75
2023-03-17T04:30:42.878Z,100105.03
2023-03-17T04:33:11.908Z,100105.48
2023-03-17T04:35:40.951Z,100109.95
2023-03-17T04:38:12.126Z,100111.56
2023-03-17T04:40:40.883Z,100113.95
2023-03-17T04:43:10.459Z,100118.59
2023-03-17T04:45:38.709Z,100122.70
2023-03-17T04:48:07.039Z,100123.75
2023-03-17T04:52:15.149Z,100117.02
2023-03-17T04:54:43.507Z,100122.34
2023-03-17T04:57:11.919Z,100126.71
2023-03-17T04:59:40.160Z,100132.01
2023-03-17T05:02:08.504Z,100134.58
2023-03-17T05:04:45.330Z,100143.65
2023-03-17T05:07:13.870Z,100140.89
2023-03-17T05:09:42.630Z,100150.86
2023-03-17T05:12:16.615Z,100154.43
2023-03-17T05:14:47.605Z,100153.77
2023-03-17T05:17:15.764Z,100161.13
2023-03-17T05:19:44.053Z,100161.66
2023-03-17T05:22:12.476Z,100166.48
2023-03-17T05:24:40.794Z,100162.20
2023-03-17T05:27:09.856Z,100167.48
2023-03-17T05:29:38.861Z,100166.80
2023-03-17T05:32:09.166Z,100168.27
2023-03-17T05:34:37.472Z,100173.91
2023-03-17T05:37:06.017Z,100174.36
2023-03-17T05:39:34.759Z,100173.83
2023-03-17T05:42:03.467Z,100176.55
2023-03-17T05:44:32.646Z,100184.27
2023-03-17T05:47:01.176Z,100185.85
2023-03-17T05:49:32.124Z,100187.73
2023-03-17T05:52:00.671Z,100188.11
2023-03-17T05:54:29.266Z,100187.07
2023-03-17T05:56:57.678Z,100191.17
2023-03-17T05:59:26.035Z,100188.58
2023-03-17T06:01:56.347Z,100188.22
2023-03-17T06:04:24.474Z,100191.17
2023-03-17T06:06:52.789Z,100191.83
2023-03-17T06:09:22.421Z,100190.98
2023-03-17T06:11:50.894Z,100199.39
2023-03-17T06:14:27.267Z,100198.52
2023-03-17T06:17:15.393Z,100204.50
2023-03-17T06:19:49.019Z,100210.48
2023-03-17T06:22:18.010Z,100209.00
2023-03-17T06:24:46.752Z,100214.39
2023-03-17T06:27:15.112Z,100215.02
2023-03-17T06:29:43.716Z,100219.48
2023-03-17T06:32:20.332Z,100216.45
2023-03-17T06:34:50.254Z,100221.64
2023-03-17T06:37:18.392Z,100222.33
2023-03-17T06:39:48.094Z,100218.71
2023-03-17T06:42:17.067Z,100218.50
2023-03-17T06:44:45.671Z,100226.58
2023-03-17T06:47:15.779Z,100232.05
2023-03-17T06:49:43.929Z,100231.45
2023-03-17T06:52:13.680Z,100231.27
2023-03-17T06:54:43.245Z,100230.82
2023-03-17T06:57:12.225Z,100228.77
2023-03-17T06:59:41.733Z,100231.09
2023-03-17T07:02:11.774Z,100237.30
2023-03-17T07:06:13.222Z,100233.42
2023-03-17T07:08:42.255Z,100238.83
2023-03-17T07:11:15.885Z,100235.73
2023-03-17T07:13:46.595Z,100233.30
2023-03-17T07:16:16.784Z,100241.02
2023-03-17T07:18:50.810Z,100236.40
2023-03-17T07:21:19.171Z,100239.17
2023-03-17T07:23:47.896Z,100242.82
2023-03-17T07:26:16.189Z,100233.39
2023-03-17T07:28:47.144Z,100233.05
2023-03-17T07:31:15.791Z,100232.68
2023-03-17T07:33:44.589Z,100233.80
2023-03-17T07:36:15.960Z,100231.04
2023-03-17T07:38:45.172Z,100235.08
2023-03-17T07:41:13.899Z,100236.85
2023-03-17T07:43:42.585Z,100240.30
2023-03-17T07:46:11.417Z,100239.34
2023-03-17T07:48:43.525Z,100242.36
2023-03-17T07:51:14.299Z,100245.83
2023-03-17T07:53:42.886Z,100249.55
2023-03-17T07:56:13.508Z,100243.11
2023-03-17T07:58:42.198Z,100247.57
2023-03-17T08:01:10.514Z,100250.67
2023-03-17T08:03:41.330Z,100249.09
2023-03-17T08:06:10.672Z,100251.13
2023-03-17T08:08:40.677Z,100250.04
2023-03-17T08:11:09.767Z,100251.38
2023-03-17T08:13:38.285Z,100254.27
2023-03-17T08:16:08.239Z,100256.86
2023-03-17T08:18:37.784Z,100262.16
2023-03-17T08:21:06.615Z,100262.44
2023-03-17T08:23:38.386Z,100269.04
2023-03-17T08:26:06.829Z,100269.08
2023-03-17T08:28:40.774Z,100269.73
2023-03-17T08:31:12.776Z,100270.73
2023-03-17T08:33:42.584Z,100270.05
2023-03-17T08:36:11.414Z,100276.93
2023-03-17T08:38:40.924Z,100277.88
2023-03-17T08:41:11.090Z,100277.53
2023-03-17T08:43:40.670Z,100278.90
2023-03-17T08:46:13.627Z,100283.41
2023-03-17T08:48:43.454Z,100276.29
2023-03-17T08:51:11.801Z,100278.70
2023-03-17T08:53:43.153Z,100282.83
2023-03-17T08:56:11.462Z,100284.73
2023-03-17T08:58:40.472Z,100289.11
2023-03-17T09:01:10.984Z,100290.06
2023-03-17T09:03:40.994Z,100294.03
2023-03-17T09:06:11.657Z,100298.88
2023-03-17T09:08:45.228Z,100298.33
2023-03-17T09:11:15.010Z,100302.96
2023-03-17T09:13:46.599Z,100303.39
2023-03-17T09:16:16.418Z,100306.41
2023-03-17T09:18:46.354Z,100300.58
2023-03-17T09:21:16.528Z,100302.11
2023-03-17T09:23:46.747Z,100301.86
2023-03-17T09:26:14.969Z,100302.40
2023-03-17T09:28:45.063Z,100304.39
2023-03-17T09:31:14.166Z,100310.25
2023-03-17T09:33:42.469Z,100308.35
2023-03-17T09:36:11.072Z,100311.90
2023-03-17T09:38:39.715Z,100307.32
2023-03-17T09:41:20.022Z,100310.88
2023-03-17T09:44:07.019Z,100316.91
2023-03-17T09:46:57.409Z,100314.06
2023-03-17T09:49:29.956Z,100311.41
2023-03-17T09:51:58.590Z,100318.15
2023-03-17T09:54:29.627Z,100320.23
2023-03-17T09:57:13.121Z,100319.77
2023-03-17T10:00:06.704Z,100322.17
2023-03-17T10:02:40.093Z,100321.23
2023-03-17T10:05:11.686Z,100328.95
2023-03-17T10:08:30.723Z,100322.39
2023-03-17T10:11:03.343Z,100324.69
2023-03-17T10:14:07.038Z,100323.62
2023-03-17T10:16:45.888Z,100327.76
2023-03-17T10:19:40.610Z,100329.90
2023-03-17T10:22:25.324Z,100330.73
2023-03-17T10:24:57.459Z,100333.04
2023-03-17T10:27:27.360Z,100334.58
2023-03-17T10:29:57.255Z,100338.09
2023-03-17T10:32:26.192Z,100337.97
2023-03-17T10:34:58.169Z,100334.95
2023-03-17T10:37:29.563Z,100336.31
2023-03-17T10:40:00.129Z,100337.48
2023-03-17T10:42:30.714Z,100338.55
2023-03-17T10:45:22.162Z,100340.58
2023-03-17T10:47:50.982Z,100340.09
2023-03-17T10:50:32.805Z,100335.86
2023-03-17T10:53:07.717Z,100339.67
2023-03-17T10:55:40.989Z,100343.10
2023-03-17T10:58:16.636Z,100343.61
2023-03-17T11:01:03.939Z,100344.22
2023-03-17T11:03:36.441Z,100343.60
2023-03-17T11:06:12.723Z,100339.05
2023-03-17T11:08:49.405Z,100337.61
2023-03-17T11:11:34.878Z,100336.16
2023-03-17T11:14:05.426Z,100334.66
2023-03-17T11:16:35.524Z,100336.33
2023-03-17T11:19:05.105Z,100337.31
2023-03-17T11:21:46.938Z,100339.17
2023-03-17T11:24:33.547Z,100338.94
2023-03-17T11:27:15.516Z,100336.45
2023-03-17T11:30:13.404Z,100339.40
2023-03-17T11:33:06.370Z,100341.02
2023-03-17T11:35:53.091Z,100342.48
2023-03-17T11:38:29.808Z,100340.36
2023-03-17T11:41:04.915Z,100340.55
2023-03-17T11:43:34.891Z,100338.66
2023-03-17T11:46:27.846Z,100339.90
2023-03-17T11:49:01.437Z,100342.89
2023-03-17T11:51:32.964Z,100340.31
2023-03-17T11:54:10.834Z,100340.52
2023-03-17T11:56:47.963Z,100344.81
2023-03-17T11:59:26.284Z,100347.22
2023-03-17T12:02:19.493Z,100350.45
2023-03-17T12:05:01.976Z,100353.73
2023-03-17T12:07:34.619Z,100355.20
2023-03-17T12:10:23.242Z,100355.44
2023-03-17T12:13:00.644Z,100359.71
2023-03-17T12:15:36.505Z,100362.11
2023-03-17T12:18:12.151Z,100360.26
2023-03-17T12:21:12.129Z,100361.78
2023-03-17T12:24:13.784Z,100365.73
2023-03-17T12:27:08.666Z,100365.42
2023-03-17T12:29:52.642Z,100368.00
2023-03-17T12:32:36.087Z,100373.05
2023-03-17T12:35:22.169Z,100370.23
2023-03-17T12:37:52.568Z,100370.12
2023-03-17T12:41:05.873Z,100372.42
2023-03-17T12:43:38.603Z,100375.58
2023-03-17T12:46:30.693Z,100380.30
2023-03-17T12:48:59.233Z,100379.39
2023-03-17T12:51:52.946Z,100379.85
2023-03-17T12:54:31.958Z,100379.00
2023-03-17T12:57:20.964Z,100380.37
2023-03-17T12:59:50.245Z,100386.30
2023-03-17T13:02:24.032Z,100385.05
2023-03-17T13:05:00.078Z,100387.45
2023-03-17T13:07:33.433Z,100386.67
2023-03-17T13:10:01.651Z,100383.89
2023-03-17T13:12:45.412Z,100386.95
2023-03-17T13:15:25.603Z,100387.58
2023-03-17T13:18:12.638Z,100388.14
2023-03-17T13:20:56.842Z,100391.45
2023-03-17T13:23:36.036Z,100388.42
2023-03-17T13:26:05.686Z,100394.36
2023-03-17T13:28:35.624Z,100392.98
2023-03-17T13:31:27.136Z,100395.80
2023-03-17T13:33:56.767Z,100395.14
2023-03-17T13:36:40.848Z,100397.01
2023-03-17T13:39:27.927Z,100402.14
2023-03-17T13:42:05.519Z,100402.80
2023-03-17T13:45:04.160Z,100406.06
2023-03-17T13:47:34.858Z,100409.21
2023-03-17T13:50:08.461Z,100414.72
2023-03-17T13:52:43.582Z,100414.27
2023-03-17T13:55:18.025Z,100412.90
2023-03-17T13:58:15.772Z,100410.28
2023-03-17T14:00:49.395Z,100415.46
2023-03-17T14:03:41.758Z,100418.23
2023-03-17T14:06:12.132Z,100418.49
2023-03-17T14:08:49.020Z,100421.98
2023-03-17T14:11:37.949Z,100425.81
2023-03-17T14:14:31.670Z,100425.29
2023-03-17T14:17:20.827Z,100430.33
2023-03-17T14:20:00.485Z,100429.46
2023-03-17T14:22:28.976Z,100431.98
2023-03-17T14:25:00.471Z,100431.91
2023-03-17T14:27:29.469Z,100433.77
2023-03-17T14:30:05.316Z,100438.33
2023-03-17T14:32:37.000Z,100439.96
2023-03-17T14:35:05.785Z,100441.22
2023-03-17T14:37:34.100Z,100447.51
2023-03-17T14:40:02.963Z,100451.91
2023-03-17T14:42:32.036Z,100448.17
2023-03-17T14:45:02.387Z,100451.66
2023-03-17T14:47:40.927Z,100455.88
2023-03-17T14:50:18.314Z,100450.49
2023-03-17T14:52:46.878Z,100449.45
2023-03-17T14:55:15.702Z,100454.30
2023-03-17T14:57:48.808Z,100452.94
2023-03-17T15:00:34.371Z,100452.32
2023-03-17T15:03:17.573Z,100451.77
2023-03-17T15:05:46.747Z,100455.09
2023-03-17T15:08:36.079Z,100457.41
2023-03-17T15:11:05.813Z,100456.04
2023-03-17T15:13:36.590Z,100454.48
2023-03-17T15:16:22.792Z,100455.79
2023-03-17T15:19:18.733Z,100454.91
2023-03-17T15:21:47.165Z,100460.09
2023-03-17T15:24:41.321Z,100457.52
2023-03-17T15:27:17.693Z,100462.60
2023-03-17T15:29:51.474Z,100465.92
2023-03-17T15:32:23.951Z,100467.45
2023-03-17T15:34:54.763Z,100470.35
2023-03-17T15:37:26.575Z,100475.69
2023-03-17T15:39:57.184Z,100475.91
2023-03-17T15:42:31.126Z,100479.84
2023-03-17T15:45:03.864Z,100483.96
2023-03-17T15:47:33.638Z,100490.02
2023-03-17T15:50:16.977Z,100488.11
2023-03-17T15:52:47.891Z,100488.81
2023-03-17T15:55:20.376Z,100492.25
2023-03-17T15:57:54.843Z,100498.51
2023-03-17T16:00:25.587Z,100504.59
2023-03-17T16:02:55.049Z,100499.70
2023-03-17T16:05:25.659Z,100502.49
2023-03-17T16:07:55.127Z,100505.52
2023-03-17T16:10:28.677Z,100505.10
2023-03-17T16:12:57.056Z,100510.30
2023-03-17T16:15:31.133Z,100512.29
2023-03-17T16:18:04.938Z,100507.24
2023-03-17T16:20:47.292Z,100511.46
2023-03-17T16:23:21.931Z,100510.27
2023-03-17T16:25:50.400Z,100513.16
2023-03-17T16:28:26.037Z,100513.16
2023-03-17T16:30:55.446Z,100516.02
2023-03-17T16:33:44.207Z,100515.77
2023-03-17T16:36:17.659Z,100519.25
2023-03-17T16:38:46.540Z,100519.77
2023-03-17T16:41:23.168Z,100523.42
2023-03-17T16:43:59.077Z,100527.76
2023-03-17T16:46:34.811Z,100525.02
2023-03-17T16:49:07.414Z,100531.70
2023-03-17T16:51:36.279Z,100534.14
2023-03-17T16:54:06.697Z,100533.80
2023-03-17T16:56:36.813Z,100537.78
2023-03-17T16:59:14.221Z,100537.86
2023-03-17T17:01:43.754Z,100541.83
2023-03-17T17:04:12.149Z,100546.67
2023-03-17T17:09:02.460Z,100548.54
2023-03-17T17:11:31.103Z,100553.04
2023-03-17T17:14:00.198Z,100550.17
2023-03-17T17:16:30.205Z,100552.64
2023-03-17T17:18:59.234Z,100551.95
2023-03-17T17:21:28.383Z,100553.10
2023-03-17T17:23:56.871Z,100557.13
2023-03-17T17:26:27.488Z,100561.30
2023-03-17T17:28:55.644Z,100561.67
2023-03-17T17:31:24.532Z,100563.30
2023-03-17T17:33:54.715Z,100558.09
2023-03-17T17:36:23.231Z,100560.66
2023-03-17T17:38:52.325Z,100562.55
2023-03-17T17:41:23.701Z,100562.73
2023-03-17T17:43:53.875Z,100563.19
2023-03-17T17:46:23.552Z,100563.95
2023-03-17T17:48:52.421Z,100560.70
2023-03-17T17:51:21.183Z,100563.14
2023-03-17T17:53:49.668Z,100563.48
2023-03-17T17:56:18.208Z,100565.01
2023-03-17T17:58:50.219Z,100568.77
2023-03-17T18:01:22.252Z,100565.45
2023-03-17T18:03:54.971Z,100568.65
2023-03-17T18:06:23.792Z,100574.02
2023-03-17T18:08:52.960Z,100574.23
2023-03-17T18:11:23.267Z,100575.06
2023-03-17T18:13:53.816Z,100577.52
2023-03-17T18:16:22.423Z,100582.13
2023-03-17T18:18:51.869Z,100583.75
2023-03-17T18:21:21.420Z,100580.39
2023-03-17T18:23:50.119Z,100582.67
2023-03-17T18:26:18.581Z,100582.34
2023-03-17T18:28:48.069Z,100581.35
2023-03-17T18:31:34.081Z,100585.83
2023-03-17T18:34:06.318Z,100587.35
2023-03-17T18:36:35.821Z,100587.64
2023-03-17T18:39:05.656Z,100587.86
2023-03-17T18:41:33.747Z,100584.42
2023-03-17T18:44:02.603Z,100582.90
2023-03-17T18:46:31.515Z,100583.04
2023-03-17T18:48:59.912Z,100582.41
2023-03-17T18:51:28.311Z,100582.00
2023-03-17T18:53:56.632Z,100582.34
2023-03-17T18:56:29.250Z,100584.44
2023-03-17T18:58:58.542Z,100585.30
2023-03-17T19:01:29.611Z,100584.48
2023-03-17T19:03:58.505Z,100586.80
2023-03-17T19:06:26.829Z,100587.21
2023-03-17T19:08:55.328Z,100589.86
2023-03-17T19:11:24.523Z,100590.23
2023-03-17T19:13:52.776Z,100589.27
2023-03-17T19:16:29.093Z,100589.58
2023-03-17T19:18:58.422Z,100586.30
2023-03-17T19:21:26.884Z,100583.99
2023-03-17T19:23:58.495Z,100579.30
2023-03-17T19:26:27.137Z,100578.53
2023-03-17T19:28:56.796Z,100574.54
2023-03-17T19:31:25.110Z,100577.19
2023-03-17T19:33:55.424Z,100572.77
2023-03-17T19:36:25.364Z,100579.55
2023-03-17T19:38:57.172Z,100579.80
2023-03-17T19:41:32.822Z,100582.51
2023-03-17T19:44:01.987Z,100581.59
2023-03-17T19:46:30.731Z,100579.23
2023-03-17T19:49:01.553Z,100576.75
2023-03-17T19:51:30.357Z,100578.36
2023-03-17T19:54:09.605Z,100577.82
2023-03-17T19:56:39.545Z,100577.25
2023-03-17T19:59:09.115Z,100581.10
2023-03-17T20:01:38.400Z,100584.20
2023-03-17T20:04:09.044Z,100584.11
2023-03-17T20:06:40.044Z,100583.70
2023-03-17T20:09:08.998Z,100583.58
2023-03-17T20:11:37.588Z,100576.67
2023-03-17T20:14:08.159Z,100576.17
2023-03-17T20:16:36.992Z,100575.06
2023-03-17T20:19:05.604Z,100576.66
2023-03-17T20:21:34.313Z,100574.81
2023-03-17T20:24:02.794Z,100579.02
2023-03-17T20:26:34.670Z,100577.25
2023-03-17T20:29:02.882Z,100583.11
2023-03-17T20:31:32.108Z,100581.79
2023-03-17T20:34:01.318Z,100573.13
2023-03-17T20:36:29.772Z,100575.46
2023-03-17T20:38:58.845Z,100571.02
2023-03-17T20:41:27.875Z,100577.90
2023-03-17T20:43:56.469Z,100567.41
2023-03-17T20:46:25.570Z,100565.51
2023-03-17T20:48:59.138Z,100563.77
2023-03-17T20:51:28.379Z,100567.05
2023-03-17T20:53:58.294Z,100566.30
2023-03-17T20:56:28.546Z,100569.30
2023-03-17T20:59:05.182Z,100568.94
2023-03-17T21:01:35.815Z,100568.15
2023-03-17T21:04:09.892Z,100570.73
2023-03-17T21:06:39.660Z,100575.19
2023-03-17T21:09:09.459Z,100573.09
2023-03-17T21:11:41.118Z,100573.38
2023-03-17T21:14:12.816Z,100578.10
2023-03-17T21:16:42.771Z,100574.83
2023-03-17T21:19:14.297Z,100573.42
2023-03-17T21:21:43.298Z,100575.48
2023-03-17T21:24:31.791Z,100576.73
2023-03-17T21:27:02.804Z,100574.91
2023-03-17T21:29:32.745Z,100573.67
2023-03-17T21:32:07.215Z,100571.60
2023-03-17T21:34:35.927Z,100575.00
2023-03-17T21:37:05.267Z,100576.45
2023-03-17T21:39:37.411Z,100575.09
2023-03-17T21:42:08.777Z,100576.40
2023-03-17T21:44:38.455Z,100576.27
2023-03-17T21:47:07.717Z,100576.23
2023-03-17T21:49:36.075Z,100574.08
2023-03-17T21:52:04.602Z,100569.20
2023-03-17T21:54:35.115Z,100573.88
2023-03-17T21:57:05.750Z,100572.23
2023-03-17T21:59:37.073Z,100578.45
2023-03-17T22:02:05.304Z,100577.00
2023-03-17T22:04:33.532Z,100577.08
2023-03-17T22:07:04.525Z,100577.45
2023-03-17T22:09:37.637Z,100577.58
2023-03-17T22:12:08.118Z,100578.86
2023-03-17T22:14:36.609Z,100577.63
2023-03-17T22:17:06.377Z,100581.56
2023-03-17T22:19:35.361Z,100581.65
2023-03-17T22:22:08.440Z,100584.55
2023-03-17T22:24:38.297Z,100584.27
2023-03-17T22:27:06.680Z,100581.52
2023-03-17T22:29:36.863Z,100587.01
2023-03-17T22:32:05.769Z,100589.10
2023-03-17T22:34:34.120Z,100595.78
2023-03-17T22:37:03.692Z,100592.01
2023-03-17T22:39:32.129Z,100594.16
2023-03-17T22:42:03.319Z,100594.19
2023-03-17T22:44:31.903Z,100596.69
2023-03-17T22:47:00.092Z,100591.84
2023-03-17T22:49:28.583Z,100591.42
2023-03-17T22:51:56.870Z,100590.30
2023-03-17T22:54:24.982Z,100586.13
2023-03-17T22:56:53.350Z,100588.85
2023-03-17T22:59:21.439Z,100590.14
2023-03-17T23:01:49.672Z,100591.22
2023-03-17T23:04:18.581Z,100584.77
2023-03-17T23:06:48.972Z,100587.79
2023-03-17T23:09:17.374Z,100589.61
2023-03-17T23:11:47.309Z,100589.77
2023-03-17T23:14:17.599Z,100590.56
2023-03-17T23:16:46.667Z,100589.64
2023-03-17T23:19:20.557Z,100593.00
2023-03-17T23:21:48.985Z,100593.87
2023-03-17T23:24:17.425Z,100592.47
2023-03-17T23:26:46.881Z,100591.60
2023-03-17T23:29:16.036Z,100590.23
2023-03-17T23:31:46.757Z,100588.73
2023-03-17T23:34:15.909Z,100587.61
2023-03-17T23:36:44.008Z,100594.77
2023-03-17T23:39:13.239Z,100595.05
2023-03-17T23:41:42.509Z,100597.02
2023-03-17T23:44:15.174Z,100598.08
2023-03-17T23:46:45.218Z,100599.48
2023-03-17T23:49:13.384Z,100601.69
2023-03-17T23:51:41.944Z,100602.40
2023-03-17T23:54:10.675Z,100609.17
2023-03-17T23:56:39.131Z,100610.39
2023-03-17T23:59:08.208Z,100610.92
